PWSweather.com
Personal Weather Stations
Station Observations
KFLSEBAS1
Sebastian Highlands, Sebastian, FL 32958-4362

Sebastian HighlandsSebastian, FL 32958-4362

Lat: 27.8, Lon: -80.48

Elevation: 23

Station Type: Davis Weather Monitor II

www.kflsebas1.com

High Low Average
Temperature 88.4°F31.3°C 80.8°F27.1°C 84.5°F29.2°C
Dew Point 82.0°F27.8°C 76.4°F24.7°C 79.3°F26.3°C
Winds 14.0 mph 22.5 kmh Calm Calm 3.0 mph NE4.8 kmh NE
Wind Gusts 20.0 mph32.2 kmh -- 11.0 mph17.7 kmh
Humidity 97% 76% 85%
Pressure 29.99 in1015.6 mb 29.86 in1011.2 mb -
Precipitation 0.00 in0.0 mm - -
Hour Temp Dew Point Humidity Winds Wind Gusts Pressure Precip Precip Rate Daily Precip Total
12:00 AM 81.2°F27.3°C 77.7°F25.4°C 89% Calm Calm -- 29.97 in1014.9 mb 0.02 in0.5 mm 0.00 in0.0 mm 0.02 in0.5 mm
12:05 AM 81.3°F27.4°C 78.1°F25.6°C 90% Calm Calm -- 29.98 in1015.2 mb 0.02 in0.5 mm 0.00 in0.0 mm 0.02 in0.5 mm
12:10 AM 81.4°F27.4°C 78.9°F26.1°C 92% Calm Calm -- 29.97 in1014.9 mb 0.02 in0.5 mm 0.00 in0.0 mm 0.02 in0.5 mm
12:15 AM 81.7°F27.6°C 80.8°F27.1°C 97% Calm Calm -- 29.97 in1014.9 mb 0.02 in0.5 mm 0.00 in0.0 mm 0.02 in0.5 mm
12:20 AM 81.6°F27.6°C 78.4°F25.8°C 90% Calm Calm -- 29.98 in1015.2 mb 0.02 in0.5 mm 0.00 in0.0 mm 0.02 in0.5 mm
12:25 AM 81.7°F27.6°C 78.5°F25.8°C 90% Calm Calm 4.0 mph6.4 kmh 29.98 in1015.2 mb 0.02 in0.5 mm 0.00 in0.0 mm 0.02 in0.5 mm
12:30 AM 81.8°F27.7°C 78.6°F25.9°C 90% 4.0 mph NE6.4 kmh NE 6.0 mph9.7 kmh 29.97 in1014.9 mb 0.02 in0.5 mm 0.00 in0.0 mm 0.02 in0.5 mm
12:35 AM 81.9°F27.7°C 78.3°F25.7°C 89% Calm Calm 8.0 mph12.9 kmh 29.98 in1015.2 mb 0.02 in0.5 mm 0.00 in0.0 mm 0.02 in0.5 mm
12:40 AM 81.8°F27.7°C 77.9°F25.5°C 88% Calm Calm 8.0 mph12.9 kmh 29.98 in1015.2 mb 0.02 in0.5 mm 0.00 in0.0 mm 0.02 in0.5 mm
12:45 AM 82.0°F27.8°C 78.1°F25.6°C 88% Calm Calm 8.0 mph12.9 kmh 29.98 in1015.2 mb 0.02 in0.5 mm 0.00 in0.0 mm 0.02 in0.5 mm
12:50 AM 82.1°F27.8°C 78.2°F25.7°C 88% Calm Calm 8.0 mph12.9 kmh 29.97 in1014.9 mb 0.02 in0.5 mm 0.00 in0.0 mm 0.02 in0.5 mm
12:55 AM 82.3°F27.9°C 78.4°F25.8°C 88% Calm Calm 8.0 mph12.9 kmh 29.98 in1015.2 mb 0.02 in0.5 mm 0.00 in0.0 mm 0.02 in0.5 mm
01:00 AM 82.3°F27.9°C 78.7°F25.9°C 89% Calm Calm -- 29.97 in1014.9 mb 0.00 in0.0 mm 0.00 in0.0 mm 0.02 in0.5 mm
01:05 AM 82.5°F28.1°C 78.9°F26.1°C 89% Calm Calm 9.0 mph14.5 kmh 29.97 in1014.9 mb 0.00 in0.0 mm 0.00 in0.0 mm 0.02 in0.5 mm
01:10 AM 82.6°F28.1°C 79.0°F26.1°C 89% Calm Calm 9.0 mph14.5 kmh 29.97 in1014.9 mb 0.00 in0.0 mm 0.00 in0.0 mm 0.02 in0.5 mm
01:15 AM 82.6°F28.1°C 79.0°F26.1°C 89% Calm Calm 9.0 mph14.5 kmh 29.96 in1014.6 mb 0.00 in0.0 mm 0.00 in0.0 mm 0.02 in0.5 mm
01:20 AM 82.6°F28.1°C 79.0°F26.1°C 89% Calm Calm 9.0 mph14.5 kmh 29.96 in1014.6 mb 0.00 in0.0 mm 0.00 in0.0 mm 0.02 in0.5 mm
01:25 AM 82.7°F28.2°C 79.1°F26.2°C 89% Calm Calm 10.0 mph16.1 kmh 29.95 in1014.2 mb 0.00 in0.0 mm 0.00 in0.0 mm 0.02 in0.5 mm
01:30 AM 82.7°F28.2°C 78.8°F26.0°C 88% 2.0 mph NE3.2 kmh NE 10.0 mph16.1 kmh 29.96 in1014.6 mb 0.00 in0.0 mm 0.00 in0.0 mm 0.02 in0.5 mm
01:35 AM 82.6°F28.1°C 78.3°F25.7°C 87% 6.0 mph ENE9.7 kmh ENE 10.0 mph16.1 kmh 29.96 in1014.6 mb 0.00 in0.0 mm 0.00 in0.0 mm 0.02 in0.5 mm
01:40 AM 82.6°F28.1°C 78.3°F25.7°C 87% 7.0 mph E11.3 kmh E 10.0 mph16.1 kmh 29.95 in1014.2 mb 0.00 in0.0 mm 0.00 in0.0 mm 0.02 in0.5 mm
01:45 AM 82.7°F28.2°C 78.4°F25.8°C 87% Calm Calm 10.0 mph16.1 kmh 29.96 in1014.6 mb 0.00 in0.0 mm 0.00 in0.0 mm 0.02 in0.5 mm
01:50 AM 82.7°F28.2°C 78.4°F25.8°C 87% Calm Calm 10.0 mph16.1 kmh 29.96 in1014.6 mb 0.00 in0.0 mm 0.00 in0.0 mm 0.02 in0.5 mm
01:55 AM 82.8°F28.2°C 78.9°F26.1°C 88% 2.0 mph ESE3.2 kmh ESE 10.0 mph16.1 kmh 29.96 in1014.6 mb 0.00 in0.0 mm 0.00 in0.0 mm 0.02 in0.5 mm
02:00 AM 82.8°F28.2°C 78.9°F26.1°C 88% Calm Calm -- 29.96 in1014.6 mb 0.00 in0.0 mm 0.00 in0.0 mm 0.02 in0.5 mm
02:05 AM 82.8°F28.2°C 78.9°F26.1°C 88% Calm Calm -- 29.96 in1014.6 mb 0.00 in0.0 mm 0.00 in0.0 mm 0.02 in0.5 mm
02:10 AM 82.8°F28.2°C 78.9°F26.1°C 88% Calm Calm -- 29.96 in1014.6 mb 0.00 in0.0 mm 0.00 in0.0 mm 0.02 in0.5 mm
02:15 AM 82.8°F28.2°C 79.2°F26.2°C 89% 9.0 mph E14.5 kmh E 9.0 mph14.5 kmh 29.96 in1014.6 mb 0.00 in0.0 mm 0.00 in0.0 mm 0.02 in0.5 mm
02:20 AM 82.7°F28.2°C 78.4°F25.8°C 87% Calm Calm 9.0 mph14.5 kmh 29.95 in1014.2 mb 0.00 in0.0 mm 0.00 in0.0 mm 0.02 in0.5 mm
02:25 AM 82.7°F28.2°C 78.4°F25.8°C 87% Calm Calm 9.0 mph14.5 kmh 29.95 in1014.2 mb 0.00 in0.0 mm 0.00 in0.0 mm 0.02 in0.5 mm
02:30 AM 82.7°F28.2°C 78.4°F25.8°C 87% 7.0 mph ENE11.3 kmh ENE 9.0 mph14.5 kmh 29.95 in1014.2 mb 0.00 in0.0 mm 0.00 in0.0 mm 0.02 in0.5 mm
02:35 AM 82.8°F28.2°C 78.5°F25.8°C 87% Calm Calm 9.0 mph14.5 kmh 29.95 in1014.2 mb 0.00 in0.0 mm 0.00 in0.0 mm 0.02 in0.5 mm
02:40 AM 82.8°F28.2°C 78.5°F25.8°C 87% 3.0 mph NE4.8 kmh NE 9.0 mph14.5 kmh 29.94 in1013.9 mb 0.00 in0.0 mm 0.00 in0.0 mm 0.02 in0.5 mm
02:45 AM 82.9°F28.3°C 78.6°F25.9°C 87% Calm Calm 9.0 mph14.5 kmh 29.95 in1014.2 mb 0.00 in0.0 mm 0.00 in0.0 mm 0.02 in0.5 mm
02:50 AM 82.9°F28.3°C 79.0°F26.1°C 88% 5.0 mph NE8.0 kmh NE 9.0 mph14.5 kmh 29.95 in1014.2 mb 0.00 in0.0 mm 0.00 in0.0 mm 0.02 in0.5 mm
02:55 AM 82.9°F28.3°C 79.0°F26.1°C 88% Calm Calm 9.0 mph14.5 kmh 29.95 in1014.2 mb 0.00 in0.0 mm 0.00 in0.0 mm 0.02 in0.5 mm
03:00 AM 82.9°F28.3°C 79.0°F26.1°C 88% 6.0 mph NE9.7 kmh NE 7.0 mph11.3 kmh 29.95 in1014.2 mb 0.00 in0.0 mm 0.00 in0.0 mm 0.02 in0.5 mm
03:05 AM 82.8°F28.2°C 78.9°F26.1°C 88% Calm Calm 7.0 mph11.3 kmh 29.95 in1014.2 mb 0.00 in0.0 mm 0.00 in0.0 mm 0.02 in0.5 mm
03:10 AM 82.8°F28.2°C 78.9°F26.1°C 88% Calm Calm 8.0 mph12.9 kmh 29.95 in1014.2 mb 0.00 in0.0 mm 0.00 in0.0 mm 0.02 in0.5 mm
03:15 AM 82.7°F28.2°C 78.4°F25.8°C 87% Calm Calm 9.0 mph14.5 kmh 29.95 in1014.2 mb 0.00 in0.0 mm 0.00 in0.0 mm 0.02 in0.5 mm
03:20 AM 82.7°F28.2°C 78.8°F26.0°C 88% 6.0 mph NE9.7 kmh NE 9.0 mph14.5 kmh 29.95 in1014.2 mb 0.00 in0.0 mm 0.00 in0.0 mm 0.02 in0.5 mm
03:25 AM 82.7°F28.2°C 78.4°F25.8°C 87% 2.0 mph ENE3.2 kmh ENE 10.0 mph16.1 kmh 29.95 in1014.2 mb 0.00 in0.0 mm 0.00 in0.0 mm 0.02 in0.5 mm
03:30 AM 82.7°F28.2°C 78.4°F25.8°C 87% Calm Calm 10.0 mph16.1 kmh 29.94 in1013.9 mb 0.00 in0.0 mm 0.00 in0.0 mm 0.02 in0.5 mm
03:35 AM 82.7°F28.2°C 78.4°F25.8°C 87% 6.0 mph NE9.7 kmh NE 10.0 mph16.1 kmh 29.94 in1013.9 mb 0.00 in0.0 mm 0.00 in0.0 mm 0.02 in0.5 mm
03:40 AM 82.8°F28.2°C 78.5°F25.8°C 87% 2.0 mph NE3.2 kmh NE 11.0 mph17.7 kmh 29.94 in1013.9 mb 0.00 in0.0 mm 0.00 in0.0 mm 0.02 in0.5 mm
03:45 AM 82.8°F28.2°C 78.5°F25.8°C 87% Calm Calm 11.0 mph17.7 kmh 29.94 in1013.9 mb 0.00 in0.0 mm 0.00 in0.0 mm 0.02 in0.5 mm
03:50 AM 82.7°F28.2°C 78.4°F25.8°C 87% 5.0 mph ENE8.0 kmh ENE 11.0 mph17.7 kmh 29.94 in1013.9 mb 0.00 in0.0 mm 0.00 in0.0 mm 0.02 in0.5 mm
03:55 AM 82.7°F28.2°C 78.4°F25.8°C 87% 7.0 mph NE11.3 kmh NE 11.0 mph17.7 kmh 29.95 in1014.2 mb 0.00 in0.0 mm 0.00 in0.0 mm 0.02 in0.5 mm
04:00 AM 82.7°F28.2°C 78.1°F25.6°C 86% 3.0 mph NE4.8 kmh NE 3.0 mph4.8 kmh 29.94 in1013.9 mb 0.00 in0.0 mm 0.00 in0.0 mm 0.02 in0.5 mm
04:05 AM 82.8°F28.2°C 78.5°F25.8°C 87% 1.0 mph ENE1.6 kmh ENE 8.0 mph12.9 kmh 29.95 in1014.2 mb 0.00 in0.0 mm 0.00 in0.0 mm 0.02 in0.5 mm
04:10 AM 82.8°F28.2°C 78.2°F25.7°C 86% Calm Calm 11.0 mph17.7 kmh 29.95 in1014.2 mb 0.00 in0.0 mm 0.00 in0.0 mm 0.02 in0.5 mm
04:15 AM 82.8°F28.2°C 78.5°F25.8°C 87% 5.0 mph NE8.0 kmh NE 11.0 mph17.7 kmh 29.94 in1013.9 mb 0.00 in0.0 mm 0.00 in0.0 mm 0.02 in0.5 mm
04:20 AM 82.8°F28.2°C 78.5°F25.8°C 87% 4.0 mph ENE6.4 kmh ENE 11.0 mph17.7 kmh 29.94 in1013.9 mb 0.00 in0.0 mm 0.00 in0.0 mm 0.02 in0.5 mm
04:25 AM 82.8°F28.2°C 78.5°F25.8°C 87% Calm Calm 11.0 mph17.7 kmh 29.95 in1014.2 mb 0.00 in0.0 mm 0.00 in0.0 mm 0.02 in0.5 mm
04:30 AM 82.8°F28.2°C 78.5°F25.8°C 87% Calm Calm 11.0 mph17.7 kmh 29.95 in1014.2 mb 0.00 in0.0 mm 0.00 in0.0 mm 0.02 in0.5 mm
04:35 AM 82.8°F28.2°C 78.5°F25.8°C 87% Calm Calm 11.0 mph17.7 kmh 29.95 in1014.2 mb 0.00 in0.0 mm 0.00 in0.0 mm 0.02 in0.5 mm
04:40 AM 82.8°F28.2°C 78.5°F25.8°C 87% 9.0 mph NE14.5 kmh NE 11.0 mph17.7 kmh 29.95 in1014.2 mb 0.00 in0.0 mm 0.00 in0.0 mm 0.02 in0.5 mm
04:45 AM 82.8°F28.2°C 78.5°F25.8°C 87% 3.0 mph NE4.8 kmh NE 11.0 mph17.7 kmh 29.95 in1014.2 mb 0.00 in0.0 mm 0.00 in0.0 mm 0.02 in0.5 mm
04:50 AM 82.8°F28.2°C 78.5°F25.8°C 87% Calm Calm 11.0 mph17.7 kmh 29.95 in1014.2 mb 0.00 in0.0 mm 0.00 in0.0 mm 0.02 in0.5 mm
04:55 AM 82.6°F28.1°C 78.0°F25.6°C 86% 6.0 mph NE9.7 kmh NE 11.0 mph17.7 kmh 29.95 in1014.2 mb 0.00 in0.0 mm 0.00 in0.0 mm 0.02 in0.5 mm
05:00 AM 82.2°F27.9°C 77.2°F25.1°C 85% Calm Calm 4.0 mph6.4 kmh 29.94 in1013.9 mb 0.00 in0.0 mm 0.00 in0.0 mm 0.02 in0.5 mm
05:05 AM 82.1°F27.8°C 77.5°F25.3°C 86% 7.0 mph NNE11.3 kmh NNE 7.0 mph11.3 kmh 29.95 in1014.2 mb 0.00 in0.0 mm 0.00 in0.0 mm 0.02 in0.5 mm
05:10 AM 81.7°F27.6°C 76.8°F24.9°C 85% Calm Calm 7.0 mph11.3 kmh 29.95 in1014.2 mb 0.00 in0.0 mm 0.00 in0.0 mm 0.02 in0.5 mm
05:15 AM 81.5°F27.5°C 76.6°F24.8°C 85% Calm Calm 7.0 mph11.3 kmh 29.95 in1014.2 mb 0.00 in0.0 mm 0.00 in0.0 mm 0.02 in0.5 mm
05:20 AM 81.4°F27.4°C 76.5°F24.7°C 85% Calm Calm 7.0 mph11.3 kmh 29.95 in1014.2 mb 0.00 in0.0 mm 0.00 in0.0 mm 0.02 in0.5 mm
05:25 AM 81.5°F27.5°C 76.6°F24.8°C 85% Calm Calm 7.0 mph11.3 kmh 29.94 in1013.9 mb 0.00 in0.0 mm 0.00 in0.0 mm 0.02 in0.5 mm
05:30 AM 81.7°F27.6°C 77.1°F25.1°C 86% Calm Calm 8.0 mph12.9 kmh 29.95 in1014.2 mb 0.00 in0.0 mm 0.00 in0.0 mm 0.02 in0.5 mm
05:35 AM 81.9°F27.7°C 77.3°F25.2°C 86% 4.0 mph NE6.4 kmh NE 8.0 mph12.9 kmh 29.95 in1014.2 mb 0.00 in0.0 mm 0.00 in0.0 mm 0.02 in0.5 mm
05:40 AM 82.0°F27.8°C 77.8°F25.4°C 87% 5.0 mph NE8.0 kmh NE 8.0 mph12.9 kmh 29.95 in1014.2 mb 0.00 in0.0 mm 0.00 in0.0 mm 0.02 in0.5 mm
05:45 AM 82.1°F27.8°C 77.9°F25.5°C 87% Calm Calm 8.0 mph12.9 kmh 29.95 in1014.2 mb 0.00 in0.0 mm 0.00 in0.0 mm 0.02 in0.5 mm
05:50 AM 82.2°F27.9°C 78.0°F25.6°C 87% Calm Calm 8.0 mph12.9 kmh 29.95 in1014.2 mb 0.00 in0.0 mm 0.00 in0.0 mm 0.02 in0.5 mm
05:55 AM 82.1°F27.8°C 77.9°F25.5°C 87% 5.0 mph NNE8.0 kmh NNE 8.0 mph12.9 kmh 29.95 in1014.2 mb 0.00 in0.0 mm 0.00 in0.0 mm 0.02 in0.5 mm
06:00 AM 81.9°F27.7°C 77.7°F25.4°C 87% 6.0 mph NE9.7 kmh NE 8.0 mph12.9 kmh 29.96 in1014.6 mb 0.00 in0.0 mm 0.00 in0.0 mm 0.02 in0.5 mm
06:05 AM 81.8°F27.7°C 78.2°F25.7°C 89% Calm Calm 10.0 mph16.1 kmh 29.95 in1014.2 mb 0.00 in0.0 mm 0.00 in0.0 mm 0.02 in0.5 mm
06:10 AM 81.5°F27.5°C 78.0°F25.6°C 89% Calm Calm 10.0 mph16.1 kmh 29.95 in1014.2 mb 0.00 in0.0 mm 0.00 in0.0 mm 0.02 in0.5 mm
06:15 AM 81.3°F27.4°C 78.1°F25.6°C 90% Calm Calm 10.0 mph16.1 kmh 29.95 in1014.2 mb 0.00 in0.0 mm 0.00 in0.0 mm 0.02 in0.5 mm
06:20 AM 81.2°F27.3°C 78.3°F25.7°C 91% Calm Calm 10.0 mph16.1 kmh 29.95 in1014.2 mb 0.00 in0.0 mm 0.00 in0.0 mm 0.02 in0.5 mm
06:25 AM 81.1°F27.3°C 78.2°F25.7°C 91% Calm Calm 10.0 mph16.1 kmh 29.95 in1014.2 mb 0.00 in0.0 mm 0.00 in0.0 mm 0.02 in0.5 mm
06:30 AM 81.0°F27.2°C 78.1°F25.6°C 91% Calm Calm 10.0 mph16.1 kmh 29.96 in1014.6 mb 0.00 in0.0 mm 0.00 in0.0 mm 0.02 in0.5 mm
06:35 AM 81.0°F27.2°C 78.1°F25.6°C 91% Calm Calm 10.0 mph16.1 kmh 29.96 in1014.6 mb 0.00 in0.0 mm 0.00 in0.0 mm 0.02 in0.5 mm
06:40 AM 81.0°F27.2°C 78.1°F25.6°C 91% Calm Calm 10.0 mph16.1 kmh 29.96 in1014.6 mb 0.00 in0.0 mm 0.00 in0.0 mm 0.02 in0.5 mm
06:45 AM 81.0°F27.2°C 78.1°F25.6°C 91% Calm Calm 10.0 mph16.1 kmh 29.96 in1014.6 mb 0.00 in0.0 mm 0.00 in0.0 mm 0.02 in0.5 mm
06:50 AM 81.1°F27.3°C 78.6°F25.9°C 92% Calm Calm 10.0 mph16.1 kmh 29.96 in1014.6 mb 0.00 in0.0 mm 0.00 in0.0 mm 0.02 in0.5 mm
06:55 AM 81.1°F27.3°C 78.2°F25.7°C 91% Calm Calm 10.0 mph16.1 kmh 29.97 in1014.9 mb 0.00 in0.0 mm 0.00 in0.0 mm 0.02 in0.5 mm
07:00 AM 80.9°F27.2°C 77.4°F25.2°C 89% Calm Calm -- 29.97 in1014.9 mb 0.00 in0.0 mm 0.00 in0.0 mm 0.02 in0.5 mm
07:05 AM 80.8°F27.1°C 76.9°F24.9°C 88% Calm Calm 5.0 mph8.0 kmh 29.97 in1014.9 mb 0.00 in0.0 mm 0.00 in0.0 mm 0.02 in0.5 mm
07:10 AM 80.9°F27.2°C 76.7°F24.8°C 87% Calm Calm 5.0 mph8.0 kmh 29.97 in1014.9 mb 0.00 in0.0 mm 0.00 in0.0 mm 0.02 in0.5 mm
07:15 AM 81.0°F27.2°C 76.4°F24.7°C 86% Calm Calm 6.0 mph9.7 kmh 29.97 in1014.9 mb 0.00 in0.0 mm 0.00 in0.0 mm 0.02 in0.5 mm
07:20 AM 81.4°F27.4°C 76.8°F24.9°C 86% Calm Calm 6.0 mph9.7 kmh 29.97 in1014.9 mb 0.00 in0.0 mm 0.00 in0.0 mm 0.02 in0.5 mm
07:25 AM 81.6°F27.6°C 77.0°F25.0°C 86% Calm Calm 6.0 mph9.7 kmh 29.97 in1014.9 mb 0.00 in0.0 mm 0.00 in0.0 mm 0.02 in0.5 mm
07:30 AM 82.1°F27.8°C 77.2°F25.1°C 85% Calm Calm 6.0 mph9.7 kmh 29.97 in1014.9 mb 0.00 in0.0 mm 0.00 in0.0 mm 0.02 in0.5 mm
07:35 AM 82.6°F28.1°C 78.0°F25.6°C 86% Calm Calm 6.0 mph9.7 kmh 29.97 in1014.9 mb 0.00 in0.0 mm 0.00 in0.0 mm 0.02 in0.5 mm
07:40 AM 83.1°F28.4°C 78.1°F25.6°C 85% Calm Calm 6.0 mph9.7 kmh 29.97 in1014.9 mb 0.00 in0.0 mm 0.00 in0.0 mm 0.02 in0.5 mm
07:45 AM 83.4°F28.6°C 78.8°F26.0°C 86% Calm Calm 6.0 mph9.7 kmh 29.97 in1014.9 mb 0.00 in0.0 mm 0.00 in0.0 mm 0.02 in0.5 mm
07:50 AM 83.9°F28.8°C 79.6°F26.4°C 87% 7.0 mph N11.3 kmh N 7.0 mph11.3 kmh 29.97 in1014.9 mb 0.00 in0.0 mm 0.00 in0.0 mm 0.02 in0.5 mm
07:55 AM 84.2°F29.0°C 79.6°F26.4°C 86% 4.0 mph NNE6.4 kmh NNE 7.0 mph11.3 kmh 29.97 in1014.9 mb 0.00 in0.0 mm 0.00 in0.0 mm 0.02 in0.5 mm
08:00 AM 84.4°F29.1°C 80.1°F26.7°C 87% Calm Calm 6.0 mph9.7 kmh 29.97 in1014.9 mb 0.00 in0.0 mm 0.00 in0.0 mm 0.02 in0.5 mm
08:05 AM 84.4°F29.1°C 80.1°F26.7°C 87% Calm Calm 9.0 mph14.5 kmh 29.98 in1015.2 mb 0.00 in0.0 mm 0.00 in0.0 mm 0.02 in0.5 mm
08:10 AM 84.3°F29.1°C 80.0°F26.7°C 87% Calm Calm 9.0 mph14.5 kmh 29.97 in1014.9 mb 0.00 in0.0 mm 0.00 in0.0 mm 0.02 in0.5 mm
08:15 AM 84.3°F29.1°C 79.7°F26.5°C 86% Calm Calm 9.0 mph14.5 kmh 29.97 in1014.9 mb 0.00 in0.0 mm 0.00 in0.0 mm 0.02 in0.5 mm
08:20 AM 84.3°F29.1°C 78.9°F26.1°C 84% Calm Calm 9.0 mph14.5 kmh 29.97 in1014.9 mb 0.00 in0.0 mm 0.00 in0.0 mm 0.02 in0.5 mm
08:25 AM 84.3°F29.1°C 78.2°F25.7°C 82% 6.0 mph NE9.7 kmh NE 9.0 mph14.5 kmh 29.97 in1014.9 mb 0.00 in0.0 mm 0.00 in0.0 mm 0.02 in0.5 mm
08:30 AM 84.6°F29.2°C 78.5°F25.8°C 82% Calm Calm 9.0 mph14.5 kmh 29.97 in1014.9 mb 0.00 in0.0 mm 0.00 in0.0 mm 0.02 in0.5 mm
08:35 AM 84.9°F29.4°C 78.8°F26.0°C 82% 6.0 mph NNE9.7 kmh NNE 9.0 mph14.5 kmh 29.97 in1014.9 mb 0.00 in0.0 mm 0.00 in0.0 mm 0.02 in0.5 mm
08:40 AM 85.1°F29.5°C 79.4°F26.3°C 83% Calm Calm 9.0 mph14.5 kmh 29.98 in1015.2 mb 0.00 in0.0 mm 0.00 in0.0 mm 0.02 in0.5 mm
08:45 AM 85.4°F29.7°C 79.7°F26.5°C 83% Calm Calm 9.0 mph14.5 kmh 29.98 in1015.2 mb 0.00 in0.0 mm 0.00 in0.0 mm 0.02 in0.5 mm
08:50 AM 85.5°F29.7°C 79.8°F26.6°C 83% Calm Calm 10.0 mph16.1 kmh 29.98 in1015.2 mb 0.00 in0.0 mm 0.00 in0.0 mm 0.02 in0.5 mm
08:55 AM 85.6°F29.8°C 80.6°F27.0°C 85% 6.0 mph NE9.7 kmh NE 10.0 mph16.1 kmh 29.98 in1015.2 mb 0.00 in0.0 mm 0.00 in0.0 mm 0.02 in0.5 mm
09:00 AM 85.7°F29.8°C 81.4°F27.4°C 87% Calm Calm -- 29.98 in1015.2 mb 0.00 in0.0 mm 0.00 in0.0 mm 0.02 in0.5 mm
09:05 AM 85.9°F29.9°C 80.5°F26.9°C 84% Calm Calm 9.0 mph14.5 kmh 29.98 in1015.2 mb 0.00 in0.0 mm 0.00 in0.0 mm 0.02 in0.5 mm
09:10 AM 86.1°F30.1°C 80.3°F26.8°C 83% 1.0 mph NNE1.6 kmh NNE 9.0 mph14.5 kmh 29.98 in1015.2 mb 0.00 in0.0 mm 0.00 in0.0 mm 0.02 in0.5 mm
09:15 AM 86.3°F30.2°C 80.5°F26.9°C 83% Calm Calm 9.0 mph14.5 kmh 29.98 in1015.2 mb 0.00 in0.0 mm 0.00 in0.0 mm 0.02 in0.5 mm
09:20 AM 86.4°F30.2°C 80.6°F27.0°C 83% Calm Calm 9.0 mph14.5 kmh 29.99 in1015.6 mb 0.00 in0.0 mm 0.00 in0.0 mm 0.02 in0.5 mm
09:25 AM 86.3°F30.2°C 80.5°F26.9°C 83% Calm Calm 9.0 mph14.5 kmh 29.98 in1015.2 mb 0.00 in0.0 mm 0.00 in0.0 mm 0.02 in0.5 mm
09:30 AM 86.3°F30.2°C 80.5°F26.9°C 83% 6.0 mph NE9.7 kmh NE 9.0 mph14.5 kmh 29.98 in1015.2 mb 0.00 in0.0 mm 0.00 in0.0 mm 0.02 in0.5 mm
09:35 AM 86.4°F30.2°C 80.6°F27.0°C 83% 7.0 mph NNE11.3 kmh NNE 9.0 mph14.5 kmh 29.98 in1015.2 mb 0.00 in0.0 mm 0.00 in0.0 mm 0.02 in0.5 mm
09:40 AM 86.6°F30.3°C 80.5°F26.9°C 82% 4.0 mph NE6.4 kmh NE 9.0 mph14.5 kmh 29.99 in1015.6 mb 0.00 in0.0 mm 0.00 in0.0 mm 0.02 in0.5 mm
09:45 AM 86.5°F30.3°C 80.4°F26.9°C 82% 11.0 mph NE17.7 kmh NE 13.0 mph20.9 kmh 29.98 in1015.2 mb 0.00 in0.0 mm 0.00 in0.0 mm 0.02 in0.5 mm
09:50 AM 86.6°F30.3°C 80.5°F26.9°C 82% 9.0 mph NE14.5 kmh NE 13.0 mph20.9 kmh 29.98 in1015.2 mb 0.00 in0.0 mm 0.00 in0.0 mm 0.02 in0.5 mm
09:55 AM 86.7°F30.4°C 82.0°F27.8°C 86% Calm Calm 13.0 mph20.9 kmh 29.99 in1015.6 mb 0.00 in0.0 mm 0.00 in0.0 mm 0.02 in0.5 mm
10:00 AM 86.8°F30.4°C 80.3°F26.8°C 81% 6.0 mph NNE9.7 kmh NNE 6.0 mph9.7 kmh 29.98 in1015.2 mb 0.00 in0.0 mm 0.00 in0.0 mm 0.02 in0.5 mm
10:05 AM 87.0°F30.6°C 81.6°F27.6°C 84% Calm Calm 9.0 mph14.5 kmh 29.98 in1015.2 mb 0.00 in0.0 mm 0.00 in0.0 mm 0.02 in0.5 mm
10:10 AM 87.0°F30.6°C 80.5°F26.9°C 81% 7.0 mph N11.3 kmh N 15.0 mph24.1 kmh 29.98 in1015.2 mb 0.00 in0.0 mm 0.00 in0.0 mm 0.02 in0.5 mm
10:15 AM 87.1°F30.6°C 80.9°F27.2°C 82% 1.0 mph NNE1.6 kmh NNE 15.0 mph24.1 kmh 29.98 in1015.2 mb 0.00 in0.0 mm 0.00 in0.0 mm 0.02 in0.5 mm
10:20 AM 87.0°F30.6°C 80.1°F26.7°C 80% Calm Calm 15.0 mph24.1 kmh 29.98 in1015.2 mb 0.00 in0.0 mm 0.00 in0.0 mm 0.02 in0.5 mm
10:25 AM 87.1°F30.6°C 80.6°F27.0°C 81% Calm Calm 15.0 mph24.1 kmh 29.99 in1015.6 mb 0.00 in0.0 mm 0.00 in0.0 mm 0.02 in0.5 mm
10:30 AM 87.0°F30.6°C 80.5°F26.9°C 81% 2.0 mph NE3.2 kmh NE 15.0 mph24.1 kmh 29.99 in1015.6 mb 0.00 in0.0 mm 0.00 in0.0 mm 0.02 in0.5 mm
10:35 AM 86.9°F30.5°C 80.4°F26.9°C 81% Calm Calm 15.0 mph24.1 kmh 29.98 in1015.2 mb 0.00 in0.0 mm 0.00 in0.0 mm 0.02 in0.5 mm
10:40 AM 87.0°F30.6°C 80.5°F26.9°C 81% Calm Calm 15.0 mph24.1 kmh 29.98 in1015.2 mb 0.00 in0.0 mm 0.00 in0.0 mm 0.02 in0.5 mm
10:45 AM 87.0°F30.6°C 80.1°F26.7°C 80% 4.0 mph NE6.4 kmh NE 15.0 mph24.1 kmh 29.98 in1015.2 mb 0.00 in0.0 mm 0.00 in0.0 mm 0.02 in0.5 mm
10:50 AM 87.2°F30.7°C 79.9°F26.6°C 79% 7.0 mph NNE11.3 kmh NNE 15.0 mph24.1 kmh 29.98 in1015.2 mb 0.00 in0.0 mm 0.00 in0.0 mm 0.02 in0.5 mm
10:55 AM 87.2°F30.7°C 79.9°F26.6°C 79% Calm Calm 15.0 mph24.1 kmh 29.99 in1015.6 mb 0.00 in0.0 mm 0.00 in0.0 mm 0.02 in0.5 mm
11:00 AM 87.5°F30.8°C 80.2°F26.8°C 79% Calm Calm 5.0 mph8.0 kmh 29.99 in1015.6 mb 0.00 in0.0 mm 0.00 in0.0 mm 0.02 in0.5 mm
11:05 AM 87.5°F30.8°C 80.6°F27.0°C 80% Calm Calm 13.0 mph20.9 kmh 29.99 in1015.6 mb 0.00 in0.0 mm 0.00 in0.0 mm 0.02 in0.5 mm
11:10 AM 87.5°F30.8°C 80.6°F27.0°C 80% Calm Calm 14.0 mph22.5 kmh 29.99 in1015.6 mb 0.00 in0.0 mm 0.00 in0.0 mm 0.02 in0.5 mm
11:15 AM 87.5°F30.8°C 81.0°F27.2°C 81% Calm Calm 14.0 mph22.5 kmh 29.99 in1015.6 mb 0.00 in0.0 mm 0.00 in0.0 mm 0.02 in0.5 mm
11:20 AM 87.7°F30.9°C 81.2°F27.3°C 81% Calm Calm 14.0 mph22.5 kmh 29.98 in1015.2 mb 0.00 in0.0 mm 0.00 in0.0 mm 0.02 in0.5 mm
11:25 AM 87.7°F30.9°C 80.8°F27.1°C 80% 2.0 mph NE3.2 kmh NE 14.0 mph22.5 kmh 29.98 in1015.2 mb 0.00 in0.0 mm 0.00 in0.0 mm 0.02 in0.5 mm
11:30 AM 87.7°F30.9°C 80.8°F27.1°C 80% 3.0 mph NE4.8 kmh NE 14.0 mph22.5 kmh 29.99 in1015.6 mb 0.00 in0.0 mm 0.00 in0.0 mm 0.02 in0.5 mm
11:35 AM 87.4°F30.8°C 80.9°F27.2°C 81% 5.0 mph NE8.0 kmh NE 14.0 mph22.5 kmh 29.98 in1015.2 mb 0.00 in0.0 mm 0.00 in0.0 mm 0.02 in0.5 mm
11:40 AM 86.8°F30.4°C 78.7°F25.9°C 77% 8.0 mph NNE12.9 kmh NNE 14.0 mph22.5 kmh 29.98 in1015.2 mb 0.00 in0.0 mm 0.00 in0.0 mm 0.02 in0.5 mm
11:45 AM 86.7°F30.4°C 78.2°F25.7°C 76% 8.0 mph NE12.9 kmh NE 14.0 mph22.5 kmh 29.98 in1015.2 mb 0.00 in0.0 mm 0.00 in0.0 mm 0.02 in0.5 mm
11:50 AM 87.0°F30.6°C 79.3°F26.3°C 78% Calm Calm 14.0 mph22.5 kmh 29.98 in1015.2 mb 0.00 in0.0 mm 0.00 in0.0 mm 0.02 in0.5 mm
11:55 AM 87.4°F30.8°C 80.1°F26.7°C 79% 5.0 mph N8.0 kmh N 14.0 mph22.5 kmh 29.98 in1015.2 mb 0.00 in0.0 mm 0.00 in0.0 mm 0.02 in0.5 mm
12:00 PM 87.6°F30.9°C 80.3°F26.8°C 79% 5.0 mph NNE8.0 kmh NNE 6.0 mph9.7 kmh 29.98 in1015.2 mb 0.00 in0.0 mm 0.00 in0.0 mm 0.02 in0.5 mm
12:05 PM 87.9°F31.1°C 80.2°F26.8°C 78% 7.0 mph NNE11.3 kmh NNE 10.0 mph16.1 kmh 29.98 in1015.2 mb 0.00 in0.0 mm 0.00 in0.0 mm 0.02 in0.5 mm
12:10 PM 87.9°F31.1°C 80.6°F27.0°C 79% 9.0 mph NNE14.5 kmh NNE 11.0 mph17.7 kmh 29.98 in1015.2 mb 0.00 in0.0 mm 0.00 in0.0 mm 0.02 in0.5 mm
12:15 PM 87.8°F31.0°C 80.5°F26.9°C 79% 4.0 mph N6.4 kmh N 11.0 mph17.7 kmh 29.97 in1014.9 mb 0.00 in0.0 mm 0.00 in0.0 mm 0.02 in0.5 mm
12:20 PM 87.8°F31.0°C 80.5°F26.9°C 79% Calm Calm 11.0 mph17.7 kmh 29.97 in1014.9 mb 0.00 in0.0 mm 0.00 in0.0 mm 0.02 in0.5 mm
12:25 PM 87.9°F31.1°C 80.6°F27.0°C 79% 7.0 mph NNE11.3 kmh NNE 11.0 mph17.7 kmh 29.97 in1014.9 mb 0.00 in0.0 mm 0.00 in0.0 mm 0.02 in0.5 mm
12:30 PM 87.7°F30.9°C 80.8°F27.1°C 80% 5.0 mph NNE8.0 kmh NNE 11.0 mph17.7 kmh 29.97 in1014.9 mb 0.00 in0.0 mm 0.00 in0.0 mm 0.02 in0.5 mm
12:35 PM 87.8°F31.0°C 81.6°F27.6°C 82% Calm Calm 12.0 mph19.3 kmh 29.97 in1014.9 mb 0.00 in0.0 mm 0.00 in0.0 mm 0.02 in0.5 mm
12:40 PM 87.9°F31.1°C 81.7°F27.6°C 82% 4.0 mph NE6.4 kmh NE 12.0 mph19.3 kmh 29.96 in1014.6 mb 0.00 in0.0 mm 0.00 in0.0 mm 0.02 in0.5 mm
12:45 PM 87.8°F31.0°C 80.9°F27.2°C 80% 3.0 mph N4.8 kmh N 12.0 mph19.3 kmh 29.96 in1014.6 mb 0.00 in0.0 mm 0.00 in0.0 mm 0.02 in0.5 mm
12:50 PM 88.0°F31.1°C 81.4°F27.4°C 81% 2.0 mph NNE3.2 kmh NNE 12.0 mph19.3 kmh 29.96 in1014.6 mb 0.00 in0.0 mm 0.00 in0.0 mm 0.02 in0.5 mm
12:55 PM 88.0°F31.1°C 81.1°F27.3°C 80% 4.0 mph NNE6.4 kmh NNE 12.0 mph19.3 kmh 29.95 in1014.2 mb 0.00 in0.0 mm 0.00 in0.0 mm 0.02 in0.5 mm
01:00 PM 88.0°F31.1°C 80.7°F27.1°C 79% 2.0 mph NNE3.2 kmh NNE 4.0 mph6.4 kmh 29.95 in1014.2 mb 0.00 in0.0 mm 0.00 in0.0 mm 0.02 in0.5 mm
01:05 PM 88.1°F31.2°C 80.8°F27.1°C 79% Calm Calm 14.0 mph22.5 kmh 29.96 in1014.6 mb 0.00 in0.0 mm 0.00 in0.0 mm 0.02 in0.5 mm
01:10 PM 88.1°F31.2°C 80.8°F27.1°C 79% Calm Calm 14.0 mph22.5 kmh 29.95 in1014.2 mb 0.00 in0.0 mm 0.00 in0.0 mm 0.02 in0.5 mm
01:15 PM 87.9°F31.1°C 79.8°F26.6°C 77% 2.0 mph N3.2 kmh N 14.0 mph22.5 kmh 29.94 in1013.9 mb 0.00 in0.0 mm 0.00 in0.0 mm 0.02 in0.5 mm
01:20 PM 87.9°F31.1°C 80.6°F27.0°C 79% 7.0 mph NNE11.3 kmh NNE 14.0 mph22.5 kmh 29.95 in1014.2 mb 0.00 in0.0 mm 0.00 in0.0 mm 0.02 in0.5 mm
01:25 PM 88.0°F31.1°C 80.7°F27.1°C 79% 9.0 mph NNE14.5 kmh NNE 14.0 mph22.5 kmh 29.94 in1013.9 mb 0.00 in0.0 mm 0.00 in0.0 mm 0.02 in0.5 mm
01:30 PM 87.8°F31.0°C 80.5°F26.9°C 79% 4.0 mph NE6.4 kmh NE 14.0 mph22.5 kmh 29.94 in1013.9 mb 0.00 in0.0 mm 0.00 in0.0 mm 0.02 in0.5 mm
01:35 PM 88.1°F31.2°C 81.2°F27.3°C 80% 4.0 mph N6.4 kmh N 14.0 mph22.5 kmh 29.93 in1013.5 mb 0.00 in0.0 mm 0.00 in0.0 mm 0.02 in0.5 mm
01:40 PM 88.4°F31.3°C 81.1°F27.3°C 79% Calm Calm 14.0 mph22.5 kmh 29.94 in1013.9 mb 0.00 in0.0 mm 0.00 in0.0 mm 0.02 in0.5 mm
01:45 PM 88.1°F31.2°C 80.4°F26.9°C 78% Calm Calm 14.0 mph22.5 kmh 29.94 in1013.9 mb 0.00 in0.0 mm 0.00 in0.0 mm 0.02 in0.5 mm
01:50 PM 88.1°F31.2°C 80.8°F27.1°C 79% 8.0 mph NNE12.9 kmh NNE 14.0 mph22.5 kmh 29.94 in1013.9 mb 0.00 in0.0 mm 0.00 in0.0 mm 0.02 in0.5 mm
01:55 PM 87.9°F31.1°C 80.6°F27.0°C 79% 7.0 mph NE11.3 kmh NE 14.0 mph22.5 kmh 29.93 in1013.5 mb 0.00 in0.0 mm 0.00 in0.0 mm 0.02 in0.5 mm
02:00 PM 87.8°F31.0°C 80.5°F26.9°C 79% 5.0 mph NE8.0 kmh NE 6.0 mph9.7 kmh 29.93 in1013.5 mb 0.00 in0.0 mm 0.00 in0.0 mm 0.02 in0.5 mm
02:05 PM 87.9°F31.1°C 80.6°F27.0°C 79% 3.0 mph NNE4.8 kmh NNE 11.0 mph17.7 kmh 29.94 in1013.9 mb 0.00 in0.0 mm 0.00 in0.0 mm 0.02 in0.5 mm
02:10 PM 87.6°F30.9°C 80.3°F26.8°C 79% 6.0 mph NNE9.7 kmh NNE 15.0 mph24.1 kmh 29.93 in1013.5 mb 0.00 in0.0 mm 0.00 in0.0 mm 0.02 in0.5 mm
02:15 PM 87.5°F30.8°C 80.2°F26.8°C 79% Calm Calm 16.0 mph25.7 kmh 29.93 in1013.5 mb 0.00 in0.0 mm 0.00 in0.0 mm 0.02 in0.5 mm
02:20 PM 87.7°F30.9°C 80.4°F26.9°C 79% 5.0 mph NNE8.0 kmh NNE 16.0 mph25.7 kmh 29.93 in1013.5 mb 0.00 in0.0 mm 0.00 in0.0 mm 0.02 in0.5 mm
02:25 PM 88.0°F31.1°C 81.1°F27.3°C 80% 5.0 mph NE8.0 kmh NE 16.0 mph25.7 kmh 29.93 in1013.5 mb 0.00 in0.0 mm 0.00 in0.0 mm 0.02 in0.5 mm
02:30 PM 88.0°F31.1°C 81.4°F27.4°C 81% 4.0 mph NNE6.4 kmh NNE 16.0 mph25.7 kmh 29.92 in1013.2 mb 0.00 in0.0 mm 0.00 in0.0 mm 0.02 in0.5 mm
02:35 PM 88.1°F31.2°C 81.5°F27.5°C 81% Calm Calm 16.0 mph25.7 kmh 29.92 in1013.2 mb 0.00 in0.0 mm 0.00 in0.0 mm 0.02 in0.5 mm
02:40 PM 87.8°F31.0°C 81.2°F27.3°C 81% Calm Calm 16.0 mph25.7 kmh 29.92 in1013.2 mb 0.00 in0.0 mm 0.00 in0.0 mm 0.02 in0.5 mm
02:45 PM 87.6°F30.9°C 81.1°F27.3°C 81% Calm Calm 16.0 mph25.7 kmh 29.92 in1013.2 mb 0.00 in0.0 mm 0.00 in0.0 mm 0.02 in0.5 mm
02:50 PM 87.5°F30.8°C 80.6°F27.0°C 80% 8.0 mph NNE12.9 kmh NNE 16.0 mph25.7 kmh 29.92 in1013.2 mb 0.00 in0.0 mm 0.00 in0.0 mm 0.02 in0.5 mm
02:55 PM 87.5°F30.8°C 81.0°F27.2°C 81% Calm Calm 16.0 mph25.7 kmh 29.92 in1013.2 mb 0.00 in0.0 mm 0.00 in0.0 mm 0.02 in0.5 mm
03:00 PM 87.4°F30.8°C 81.2°F27.3°C 82% 6.0 mph NNE9.7 kmh NNE 6.0 mph9.7 kmh 29.91 in1012.9 mb 0.00 in0.0 mm 0.00 in0.0 mm 0.02 in0.5 mm
03:05 PM 87.2°F30.7°C 80.3°F26.8°C 80% Calm Calm 15.0 mph24.1 kmh 29.91 in1012.9 mb 0.00 in0.0 mm 0.00 in0.0 mm 0.02 in0.5 mm
03:10 PM 86.9°F30.5°C 80.0°F26.7°C 80% 5.0 mph NNE8.0 kmh NNE 15.0 mph24.1 kmh 29.91 in1012.9 mb 0.00 in0.0 mm 0.00 in0.0 mm 0.02 in0.5 mm
03:15 PM 87.0°F30.6°C 79.7°F26.5°C 79% 2.0 mph NE3.2 kmh NE 15.0 mph24.1 kmh 29.91 in1012.9 mb 0.00 in0.0 mm 0.00 in0.0 mm 0.02 in0.5 mm
03:20 PM 87.0°F30.6°C 80.1°F26.7°C 80% Calm Calm 15.0 mph24.1 kmh 29.91 in1012.9 mb 0.00 in0.0 mm 0.00 in0.0 mm 0.02 in0.5 mm
03:25 PM 87.0°F30.6°C 80.1°F26.7°C 80% 6.0 mph NE9.7 kmh NE 15.0 mph24.1 kmh 29.91 in1012.9 mb 0.00 in0.0 mm 0.00 in0.0 mm 0.02 in0.5 mm
03:30 PM 87.1°F30.6°C 80.2°F26.8°C 80% 3.0 mph N4.8 kmh N 15.0 mph24.1 kmh 29.91 in1012.9 mb 0.00 in0.0 mm 0.00 in0.0 mm 0.02 in0.5 mm
03:35 PM 87.2°F30.7°C 79.9°F26.6°C 79% 7.0 mph NNE11.3 kmh NNE 15.0 mph24.1 kmh 29.90 in1012.5 mb 0.00 in0.0 mm 0.00 in0.0 mm 0.02 in0.5 mm
03:40 PM 87.2°F30.7°C 80.3°F26.8°C 80% Calm Calm 15.0 mph24.1 kmh 29.90 in1012.5 mb 0.00 in0.0 mm 0.00 in0.0 mm 0.02 in0.5 mm
03:45 PM 87.1°F30.6°C 80.2°F26.8°C 80% Calm Calm 15.0 mph24.1 kmh 29.90 in1012.5 mb 0.00 in0.0 mm 0.00 in0.0 mm 0.02 in0.5 mm
03:50 PM 87.1°F30.6°C 80.6°F27.0°C 81% 6.0 mph NNE9.7 kmh NNE 15.0 mph24.1 kmh 29.91 in1012.9 mb 0.00 in0.0 mm 0.00 in0.0 mm 0.02 in0.5 mm
03:55 PM 87.0°F30.6°C 80.5°F26.9°C 81% Calm Calm 16.0 mph25.7 kmh 29.91 in1012.9 mb 0.00 in0.0 mm 0.00 in0.0 mm 0.02 in0.5 mm
04:00 PM 87.0°F30.6°C 80.5°F26.9°C 81% Calm Calm 6.0 mph9.7 kmh 29.90 in1012.5 mb 0.00 in0.0 mm 0.00 in0.0 mm 0.02 in0.5 mm
04:05 PM 86.9°F30.5°C 80.7°F27.1°C 82% 1.0 mph N1.6 kmh N 11.0 mph17.7 kmh 29.91 in1012.9 mb 0.00 in0.0 mm 0.00 in0.0 mm 0.02 in0.5 mm
04:10 PM 86.7°F30.4°C 80.6°F27.0°C 82% Calm Calm 16.0 mph25.7 kmh 29.90 in1012.5 mb 0.00 in0.0 mm 0.00 in0.0 mm 0.02 in0.5 mm
04:15 PM 86.7°F30.4°C 80.6°F27.0°C 82% 5.0 mph NE8.0 kmh NE 16.0 mph25.7 kmh 29.90 in1012.5 mb 0.00 in0.0 mm 0.00 in0.0 mm 0.02 in0.5 mm
04:20 PM 86.8°F30.4°C 80.7°F27.1°C 82% 6.0 mph NNE9.7 kmh NNE 17.0 mph27.4 kmh 29.90 in1012.5 mb 0.00 in0.0 mm 0.00 in0.0 mm 0.02 in0.5 mm
04:25 PM 86.6°F30.3°C 80.5°F26.9°C 82% Calm Calm 17.0 mph27.4 kmh 29.90 in1012.5 mb 0.00 in0.0 mm 0.00 in0.0 mm 0.02 in0.5 mm
04:30 PM 86.4°F30.2°C 80.6°F27.0°C 83% 4.0 mph N6.4 kmh N 17.0 mph27.4 kmh 29.90 in1012.5 mb 0.00 in0.0 mm 0.00 in0.0 mm 0.02 in0.5 mm
04:35 PM 86.3°F30.2°C 80.5°F26.9°C 83% Calm Calm 17.0 mph27.4 kmh 29.90 in1012.5 mb 0.00 in0.0 mm 0.00 in0.0 mm 0.02 in0.5 mm
04:40 PM 86.2°F30.1°C 80.4°F26.9°C 83% 1.0 mph NE1.6 kmh NE 17.0 mph27.4 kmh 29.90 in1012.5 mb 0.00 in0.0 mm 0.00 in0.0 mm 0.02 in0.5 mm
04:45 PM 85.9°F29.9°C 79.8°F26.6°C 82% 4.0 mph NNE6.4 kmh NNE 17.0 mph27.4 kmh 29.90 in1012.5 mb 0.00 in0.0 mm 0.00 in0.0 mm 0.02 in0.5 mm
04:50 PM 85.7°F29.8°C 79.2°F26.2°C 81% 7.0 mph N11.3 kmh N 20.0 mph32.2 kmh 29.90 in1012.5 mb 0.00 in0.0 mm 0.00 in0.0 mm 0.02 in0.5 mm
04:55 PM 85.8°F29.9°C 79.7°F26.5°C 82% Calm Calm 20.0 mph32.2 kmh 29.90 in1012.5 mb 0.00 in0.0 mm 0.00 in0.0 mm 0.02 in0.5 mm
05:00 PM 85.8°F29.9°C 79.7°F26.5°C 82% 6.0 mph N9.7 kmh N 7.0 mph11.3 kmh 29.90 in1012.5 mb 0.00 in0.0 mm 0.00 in0.0 mm 0.02 in0.5 mm
05:05 PM 85.8°F29.9°C 80.0°F26.7°C 83% 3.0 mph N4.8 kmh N 9.0 mph14.5 kmh 29.90 in1012.5 mb 0.00 in0.0 mm 0.00 in0.0 mm 0.02 in0.5 mm
05:10 PM 85.7°F29.8°C 79.9°F26.6°C 83% 4.0 mph NNE6.4 kmh NNE 9.0 mph14.5 kmh 29.91 in1012.9 mb 0.00 in0.0 mm 0.00 in0.0 mm 0.02 in0.5 mm
05:15 PM 85.5°F29.7°C 80.1°F26.7°C 84% 8.0 mph NNE12.9 kmh NNE 14.0 mph22.5 kmh 29.90 in1012.5 mb 0.00 in0.0 mm 0.00 in0.0 mm 0.02 in0.5 mm
05:20 PM 85.5°F29.7°C 80.1°F26.7°C 84% Calm Calm 14.0 mph22.5 kmh 29.91 in1012.9 mb 0.00 in0.0 mm 0.00 in0.0 mm 0.02 in0.5 mm
05:25 PM 85.5°F29.7°C 80.1°F26.7°C 84% 11.0 mph N17.7 kmh N 14.0 mph22.5 kmh 29.91 in1012.9 mb 0.00 in0.0 mm 0.00 in0.0 mm 0.02 in0.5 mm
05:30 PM 85.3°F29.6°C 80.3°F26.8°C 85% 3.0 mph N4.8 kmh N 15.0 mph24.1 kmh 29.91 in1012.9 mb 0.00 in0.0 mm 0.00 in0.0 mm 0.02 in0.5 mm
05:35 PM 85.3°F29.6°C 80.3°F26.8°C 85% Calm Calm 15.0 mph24.1 kmh 29.91 in1012.9 mb 0.00 in0.0 mm 0.00 in0.0 mm 0.02 in0.5 mm
05:40 PM 85.3°F29.6°C 80.6°F27.0°C 86% 6.0 mph NE9.7 kmh NE 15.0 mph24.1 kmh 29.91 in1012.9 mb 0.00 in0.0 mm 0.00 in0.0 mm 0.02 in0.5 mm
05:45 PM 85.3°F29.6°C 81.4°F27.4°C 88% 6.0 mph NNE9.7 kmh NNE 15.0 mph24.1 kmh 29.91 in1012.9 mb 0.00 in0.0 mm 0.00 in0.0 mm 0.02 in0.5 mm
05:50 PM 85.1°F29.5°C 80.1°F26.7°C 85% Calm Calm 15.0 mph24.1 kmh 29.91 in1012.9 mb 0.00 in0.0 mm 0.00 in0.0 mm 0.02 in0.5 mm
05:55 PM 85.0°F29.4°C 79.6°F26.4°C 84% 4.0 mph NNW6.4 kmh NNW 15.0 mph24.1 kmh 29.90 in1012.5 mb 0.00 in0.0 mm 0.00 in0.0 mm 0.02 in0.5 mm
06:00 PM 84.5°F29.2°C 79.1°F26.2°C 84% 7.0 mph N11.3 kmh N 7.0 mph11.3 kmh 29.91 in1012.9 mb 0.00 in0.0 mm 0.00 in0.0 mm 0.02 in0.5 mm
06:05 PM 84.3°F29.1°C 78.9°F26.1°C 84% 5.0 mph N8.0 kmh N 11.0 mph17.7 kmh 29.91 in1012.9 mb 0.00 in0.0 mm 0.00 in0.0 mm 0.02 in0.5 mm
06:10 PM 84.1°F28.9°C 78.8°F26.0°C 84% Calm Calm 11.0 mph17.7 kmh 29.90 in1012.5 mb 0.00 in0.0 mm 0.00 in0.0 mm 0.02 in0.5 mm
06:15 PM 83.9°F28.8°C 78.9°F26.1°C 85% 11.0 mph N17.7 kmh N 11.0 mph17.7 kmh 29.90 in1012.5 mb 0.00 in0.0 mm 0.00 in0.0 mm 0.02 in0.5 mm
06:20 PM 83.9°F28.8°C 79.3°F26.3°C 86% 4.0 mph N6.4 kmh N 11.0 mph17.7 kmh 29.90 in1012.5 mb 0.00 in0.0 mm 0.00 in0.0 mm 0.02 in0.5 mm
06:25 PM 83.9°F28.8°C 79.3°F26.3°C 86% Calm Calm 11.0 mph17.7 kmh 29.90 in1012.5 mb 0.00 in0.0 mm 0.00 in0.0 mm 0.02 in0.5 mm
06:30 PM 83.8°F28.8°C 79.5°F26.4°C 87% Calm Calm 11.0 mph17.7 kmh 29.90 in1012.5 mb 0.00 in0.0 mm 0.00 in0.0 mm 0.02 in0.5 mm
06:35 PM 83.8°F28.8°C 79.2°F26.2°C 86% 5.0 mph N8.0 kmh N 12.0 mph19.3 kmh 29.90 in1012.5 mb 0.00 in0.0 mm 0.00 in0.0 mm 0.02 in0.5 mm
06:40 PM 83.8°F28.8°C 79.2°F26.2°C 86% 7.0 mph NE11.3 kmh NE 12.0 mph19.3 kmh 29.90 in1012.5 mb 0.00 in0.0 mm 0.00 in0.0 mm 0.02 in0.5 mm
06:45 PM 83.8°F28.8°C 79.2°F26.2°C 86% 4.0 mph N6.4 kmh N 12.0 mph19.3 kmh 29.91 in1012.9 mb 0.00 in0.0 mm 0.00 in0.0 mm 0.02 in0.5 mm
06:50 PM 83.8°F28.8°C 79.2°F26.2°C 86% 1.0 mph NE1.6 kmh NE 12.0 mph19.3 kmh 29.91 in1012.9 mb 0.00 in0.0 mm 0.00 in0.0 mm 0.02 in0.5 mm
06:55 PM 83.8°F28.8°C 79.2°F26.2°C 86% 6.0 mph N9.7 kmh N 14.0 mph22.5 kmh 29.91 in1012.9 mb 0.00 in0.0 mm 0.00 in0.0 mm 0.02 in0.5 mm
07:00 PM 83.8°F28.8°C 79.2°F26.2°C 86% 6.0 mph N9.7 kmh N 6.0 mph9.7 kmh 29.90 in1012.5 mb 0.00 in0.0 mm 0.00 in0.0 mm 0.02 in0.5 mm
07:05 PM 83.9°F28.8°C 79.3°F26.3°C 86% Calm Calm 9.0 mph14.5 kmh 29.90 in1012.5 mb 0.00 in0.0 mm 0.00 in0.0 mm 0.02 in0.5 mm
07:10 PM 83.9°F28.8°C 79.3°F26.3°C 86% 14.0 mph N22.5 kmh N 14.0 mph22.5 kmh 29.90 in1012.5 mb 0.00 in0.0 mm 0.00 in0.0 mm 0.02 in0.5 mm
07:15 PM 83.8°F28.8°C 78.8°F26.0°C 85% 2.0 mph NE3.2 kmh NE 16.0 mph25.7 kmh 29.90 in1012.5 mb 0.00 in0.0 mm 0.00 in0.0 mm 0.02 in0.5 mm
07:20 PM 83.8°F28.8°C 78.5°F25.8°C 84% 8.0 mph N12.9 kmh N 17.0 mph27.4 kmh 29.90 in1012.5 mb 0.00 in0.0 mm 0.00 in0.0 mm 0.02 in0.5 mm
07:25 PM 83.8°F28.8°C 78.8°F26.0°C 85% 4.0 mph N6.4 kmh N 17.0 mph27.4 kmh 29.91 in1012.9 mb 0.00 in0.0 mm 0.00 in0.0 mm 0.02 in0.5 mm
07:30 PM 83.8°F28.8°C 78.8°F26.0°C 85% 7.0 mph N11.3 kmh N 17.0 mph27.4 kmh 29.91 in1012.9 mb 0.00 in0.0 mm 0.00 in0.0 mm 0.02 in0.5 mm
07:35 PM 83.9°F28.8°C 78.9°F26.1°C 85% 10.0 mph N16.1 kmh N 17.0 mph27.4 kmh 29.90 in1012.5 mb 0.00 in0.0 mm 0.00 in0.0 mm 0.02 in0.5 mm
07:40 PM 83.9°F28.8°C 78.9°F26.1°C 85% Calm Calm 17.0 mph27.4 kmh 29.91 in1012.9 mb 0.00 in0.0 mm 0.00 in0.0 mm 0.02 in0.5 mm
07:45 PM 84.0°F28.9°C 79.0°F26.1°C 85% 8.0 mph NNE12.9 kmh NNE 17.0 mph27.4 kmh 29.91 in1012.9 mb 0.00 in0.0 mm 0.00 in0.0 mm 0.02 in0.5 mm
07:50 PM 83.9°F28.8°C 78.9°F26.1°C 85% Calm Calm 17.0 mph27.4 kmh 29.91 in1012.9 mb 0.00 in0.0 mm 0.00 in0.0 mm 0.02 in0.5 mm
07:55 PM 84.0°F28.9°C 79.4°F26.3°C 86% Calm Calm 17.0 mph27.4 kmh 29.90 in1012.5 mb 0.00 in0.0 mm 0.00 in0.0 mm 0.02 in0.5 mm
08:35 PM 83.4°F28.6°C 79.5°F26.4°C 88% 5.0 mph NNE8.0 kmh NNE 12.0 mph19.3 kmh 29.90 in1012.5 mb 0.00 in0.0 mm 0.00 in0.0 mm 0.02 in0.5 mm
08:40 PM 83.3°F28.5°C 79.4°F26.3°C 88% 3.0 mph N4.8 kmh N 12.0 mph19.3 kmh 29.90 in1012.5 mb 0.00 in0.0 mm 0.00 in0.0 mm 0.02 in0.5 mm
08:45 PM 83.4°F28.6°C 79.5°F26.4°C 88% Calm Calm 12.0 mph19.3 kmh 29.90 in1012.5 mb 0.00 in0.0 mm 0.00 in0.0 mm 0.02 in0.5 mm
08:50 PM 83.3°F28.5°C 79.7°F26.5°C 89% Calm Calm 12.0 mph19.3 kmh 29.90 in1012.5 mb 0.00 in0.0 mm 0.00 in0.0 mm 0.02 in0.5 mm
08:55 PM 83.3°F28.5°C 79.4°F26.3°C 88% Calm Calm 12.0 mph19.3 kmh 29.90 in1012.5 mb 0.00 in0.0 mm 0.00 in0.0 mm 0.02 in0.5 mm
09:00 PM 83.3°F28.5°C 79.0°F26.1°C 87% 5.0 mph NE8.0 kmh NE 5.0 mph8.0 kmh 29.90 in1012.5 mb 0.00 in0.0 mm 0.00 in0.0 mm 0.02 in0.5 mm
09:05 PM 83.3°F28.5°C 78.7°F25.9°C 86% 3.0 mph NE4.8 kmh NE 10.0 mph16.1 kmh 29.90 in1012.5 mb 0.00 in0.0 mm 0.00 in0.0 mm 0.02 in0.5 mm
09:10 PM 83.5°F28.6°C 78.9°F26.1°C 86% 3.0 mph N4.8 kmh N 12.0 mph19.3 kmh 29.90 in1012.5 mb 0.00 in0.0 mm 0.00 in0.0 mm 0.02 in0.5 mm
09:15 PM 83.6°F28.7°C 79.3°F26.3°C 87% 3.0 mph NNE4.8 kmh NNE 13.0 mph20.9 kmh 29.90 in1012.5 mb 0.00 in0.0 mm 0.00 in0.0 mm 0.02 in0.5 mm
09:20 PM 83.6°F28.7°C 79.7°F26.5°C 88% 4.0 mph N6.4 kmh N 13.0 mph20.9 kmh 29.90 in1012.5 mb 0.00 in0.0 mm 0.00 in0.0 mm 0.02 in0.5 mm
09:25 PM 83.5°F28.6°C 79.2°F26.2°C 87% 5.0 mph N8.0 kmh N 13.0 mph20.9 kmh 29.90 in1012.5 mb 0.00 in0.0 mm 0.00 in0.0 mm 0.02 in0.5 mm
09:30 PM 83.5°F28.6°C 79.6°F26.4°C 88% 5.0 mph NNE8.0 kmh NNE 13.0 mph20.9 kmh 29.89 in1012.2 mb 0.00 in0.0 mm 0.00 in0.0 mm 0.02 in0.5 mm
09:35 PM 83.5°F28.6°C 79.6°F26.4°C 88% 2.0 mph N3.2 kmh N 13.0 mph20.9 kmh 29.90 in1012.5 mb 0.00 in0.0 mm 0.00 in0.0 mm 0.02 in0.5 mm
09:40 PM 83.4°F28.6°C 79.5°F26.4°C 88% Calm Calm 13.0 mph20.9 kmh 29.90 in1012.5 mb 0.00 in0.0 mm 0.00 in0.0 mm 0.02 in0.5 mm
09:45 PM 83.3°F28.5°C 79.0°F26.1°C 87% 4.0 mph NNE6.4 kmh NNE 13.0 mph20.9 kmh 29.90 in1012.5 mb 0.00 in0.0 mm 0.00 in0.0 mm 0.02 in0.5 mm
09:50 PM 83.3°F28.5°C 78.7°F25.9°C 86% Calm Calm 13.0 mph20.9 kmh 29.90 in1012.5 mb 0.00 in0.0 mm 0.00 in0.0 mm 0.02 in0.5 mm
09:55 PM 83.4°F28.6°C 78.8°F26.0°C 86% Calm Calm 13.0 mph20.9 kmh 29.89 in1012.2 mb 0.00 in0.0 mm 0.00 in0.0 mm 0.02 in0.5 mm
10:00 PM 83.6°F28.7°C 79.3°F26.3°C 87% Calm Calm 2.0 mph3.2 kmh 29.90 in1012.5 mb 0.00 in0.0 mm 0.00 in0.0 mm 0.02 in0.5 mm
10:05 PM 83.6°F28.7°C 79.3°F26.3°C 87% Calm Calm 12.0 mph19.3 kmh 29.90 in1012.5 mb 0.00 in0.0 mm 0.00 in0.0 mm 0.02 in0.5 mm
10:10 PM 83.4°F28.6°C 79.5°F26.4°C 88% 7.0 mph NNE11.3 kmh NNE 12.0 mph19.3 kmh 29.90 in1012.5 mb 0.01 in0.3 mm 0.12 in3.0 mm 0.03 in0.8 mm
10:15 PM 83.1°F28.4°C 79.5°F26.4°C 89% 9.0 mph NNE14.5 kmh NNE 12.0 mph19.3 kmh 29.90 in1012.5 mb 0.01 in0.3 mm 0.00 in0.0 mm 0.03 in0.8 mm
10:20 PM 82.9°F28.3°C 79.7°F26.5°C 90% 2.0 mph N3.2 kmh N 12.0 mph19.3 kmh 29.89 in1012.2 mb 0.01 in0.3 mm 0.00 in0.0 mm 0.03 in0.8 mm
10:25 PM 82.7°F28.2°C 79.5°F26.4°C 90% Calm Calm 12.0 mph19.3 kmh 29.89 in1012.2 mb 0.01 in0.3 mm 0.00 in0.0 mm 0.03 in0.8 mm
10:30 PM 82.6°F28.1°C 79.4°F26.3°C 90% Calm Calm 12.0 mph19.3 kmh 29.89 in1012.2 mb 0.01 in0.3 mm 0.00 in0.0 mm 0.03 in0.8 mm
10:35 PM 82.5°F28.1°C 78.9°F26.1°C 89% 2.0 mph N3.2 kmh N 12.0 mph19.3 kmh 29.89 in1012.2 mb 0.01 in0.3 mm 0.00 in0.0 mm 0.03 in0.8 mm
10:40 PM 82.5°F28.1°C 78.6°F25.9°C 88% 3.0 mph NNE4.8 kmh NNE 12.0 mph19.3 kmh 29.88 in1011.9 mb 0.01 in0.3 mm 0.00 in0.0 mm 0.03 in0.8 mm
10:45 PM 82.6°F28.1°C 78.7°F25.9°C 88% Calm Calm 12.0 mph19.3 kmh 29.88 in1011.9 mb 0.01 in0.3 mm 0.00 in0.0 mm 0.03 in0.8 mm
10:50 PM 82.7°F28.2°C 78.8°F26.0°C 88% 2.0 mph N3.2 kmh N 12.0 mph19.3 kmh 29.87 in1011.5 mb 0.01 in0.3 mm 0.00 in0.0 mm 0.03 in0.8 mm
10:55 PM 82.8°F28.2°C 78.5°F25.8°C 87% 6.0 mph N9.7 kmh N 13.0 mph20.9 kmh 29.87 in1011.5 mb 0.01 in0.3 mm 0.00 in0.0 mm 0.03 in0.8 mm
11:00 PM 82.9°F28.3°C 78.6°F25.9°C 87% 3.0 mph NNE4.8 kmh NNE 7.0 mph11.3 kmh 29.87 in1011.5 mb 0.01 in0.3 mm 0.00 in0.0 mm 0.03 in0.8 mm
11:05 PM 82.8°F28.2°C 77.5°F25.3°C 84% 5.0 mph N8.0 kmh N 12.0 mph19.3 kmh 29.87 in1011.5 mb 0.01 in0.3 mm 0.00 in0.0 mm 0.03 in0.8 mm
11:10 PM 82.8°F28.2°C 77.1°F25.1°C 83% 5.0 mph N8.0 kmh N 19.0 mph30.6 kmh 29.88 in1011.9 mb 0.01 in0.3 mm 0.00 in0.0 mm 0.03 in0.8 mm
11:15 PM 83.0°F28.3°C 77.3°F25.2°C 83% 4.0 mph N6.4 kmh N 19.0 mph30.6 kmh 29.88 in1011.9 mb 0.01 in0.3 mm 0.00 in0.0 mm 0.03 in0.8 mm
11:20 PM 83.1°F28.4°C 77.8°F25.4°C 84% 6.0 mph NNE9.7 kmh NNE 19.0 mph30.6 kmh 29.88 in1011.9 mb 0.01 in0.3 mm 0.00 in0.0 mm 0.03 in0.8 mm
11:25 PM 83.1°F28.4°C 77.8°F25.4°C 84% 3.0 mph NNE4.8 kmh NNE 19.0 mph30.6 kmh 29.87 in1011.5 mb 0.01 in0.3 mm 0.00 in0.0 mm 0.03 in0.8 mm
11:30 PM 83.0°F28.3°C 77.7°F25.4°C 84% Calm Calm 19.0 mph30.6 kmh 29.87 in1011.5 mb 0.01 in0.3 mm 0.00 in0.0 mm 0.03 in0.8 mm
11:35 PM 83.0°F28.3°C 77.7°F25.4°C 84% 9.0 mph N14.5 kmh N 19.0 mph30.6 kmh 29.87 in1011.5 mb 0.01 in0.3 mm 0.00 in0.0 mm 0.03 in0.8 mm
11:40 PM 83.1°F28.4°C 77.8°F25.4°C 84% 6.0 mph N9.7 kmh N 19.0 mph30.6 kmh 29.87 in1011.5 mb 0.01 in0.3 mm 0.00 in0.0 mm 0.03 in0.8 mm
11:45 PM 83.1°F28.4°C 78.1°F25.6°C 85% 9.0 mph N14.5 kmh N 19.0 mph30.6 kmh 29.86 in1011.2 mb 0.01 in0.3 mm 0.00 in0.0 mm 0.03 in0.8 mm
11:50 PM 83.1°F28.4°C 78.1°F25.6°C 85% 4.0 mph N6.4 kmh N 19.0 mph30.6 kmh 29.86 in1011.2 mb 0.01 in0.3 mm 0.00 in0.0 mm 0.03 in0.8 mm
11:55 PM 83.1°F28.4°C 78.1°F25.6°C 85% 4.0 mph NNW6.4 kmh NNW 19.0 mph30.6 kmh 29.86 in1011.2 mb 0.01 in0.3 mm 0.00 in0.0 mm 0.03 in0.8 mm